Time;durP1;ratioP1;P1;durP2;ratioP2;P2;SDS_P1;SDS_P2;PMS_P1;PMS_P2;Temp;Humidity;BMP_temperature;BMP_pressure;BME280_temperature;BME280_humidity;BME280_pressure;Samples;Min_cycle;Max_cycle;Signal;HPM_P1;HPM_P2
2023/11/23 00:01:33;;;;;;;;;;;16.00;91.40;;;;;;5014043;28;20320;-80
2023/11/23 00:03:59;;;;;;;;;;;16.10;88.60;;;;;;5013417;28;19928;-79
2023/11/23 00:06:26;;;;;;;;;;;16.10;91.60;;;;;;5013755;28;19924;-79
2023/11/23 00:08:51;;;;;;;;;;;16.00;91.60;;;;;;5013917;28;19909;-80
2023/11/23 00:11:17;;;;;;;;;;;16.00;91.50;;;;;;5014123;28;19913;-72
2023/11/23 00:13:43;;;;;;;;;;;16.10;91.60;;;;;;5013491;28;19910;-73
2023/11/23 00:16:09;;;;;;;;;;;16.00;91.60;;;;;;5013748;28;19917;-72
2023/11/23 00:18:35;;;;;;;;;;;15.90;91.30;;;;;;5013751;28;20279;-73
2023/11/23 00:21:01;;;;;;;;;;;16.50;91.40;;;;;;5013635;28;20279;-72
2023/11/23 00:23:27;;;;;;;;;;;15.90;91.60;;;;;;5013727;28;19914;-72
2023/11/23 00:25:53;;;;;;;;;;;16.00;91.40;;;;;;5014085;28;20377;-73
2023/11/23 00:28:19;;;;;;;;;;;16.00;91.60;;;;;;5013599;28;19910;-72
2023/11/23 00:30:45;;;;;;;;;;;16.00;91.60;;;;;;5013566;28;19910;-72
2023/11/23 00:33:11;;;;;;;;;;;16.00;91.60;;;;;;5013156;28;20334;-72
2023/11/23 00:35:37;;;;;;;;;;;15.90;91.40;;;;;;5013417;28;20280;-72
2023/11/23 00:38:03;;;;;;;;;;;16.10;91.70;;;;;;5013363;28;19909;-72
2023/11/23 00:40:29;;;;;;;;;;;15.90;91.50;;;;;;5013341;28;19913;-72
2023/11/23 00:42:55;;;;;;;;;;;15.90;91.60;;;;;;5013315;28;19909;-72
2023/11/23 00:45:21;;;;;;;;;;;16.00;91.60;;;;;;5012872;28;20331;-72
2023/11/23 00:47:47;;;;;;;;;;;16.00;91.50;;;;;;5012903;28;19917;-73
2023/11/23 00:50:13;;;;;;;;;;;15.40;91.30;;;;;;5013158;28;19909;-72
2023/11/23 00:52:39;;;;;;;;;;;16.20;91.50;;;;;;5013232;28;19949;-72
2023/11/23 00:55:05;;;;;;;;;;;16.00;91.70;;;;;;5013857;28;19932;-72
2023/11/23 00:57:32;;;;;;;;;;;16.00;91.00;;;;;;5013187;28;20368;-72
2023/11/23 01:00:00;;;;;;;;;;;16.00;91.70;;;;;;5012707;28;19952;-72
2023/11/23 01:02:26;;;;;;;;;;;15.90;91.50;;;;;;5012818;28;20359;-72
2023/11/23 01:04:52;;;;;;;;;;;16.00;91.40;;;;;;5012939;28;19975;-72
2023/11/23 01:07:18;;;;;;;;;;;16.00;91.70;;;;;;5012939;28;19909;-72
2023/11/23 01:09:44;;;;;;;;;;;16.00;91.70;;;;;;5013087;28;20139;-72
2023/11/23 01:12:10;;;;;;;;;;;16.10;91.70;;;;;;5012516;28;19910;-72
2023/11/23 01:14:36;;;;;;;;;;;15.90;91.70;;;;;;5012614;28;19910;-72
2023/11/23 01:17:03;;;;;;;;;;;15.90;91.40;;;;;;5012506;28;19917;-72
2023/11/23 01:19:29;;;;;;;;;;;15.90;91.50;;;;;;5012467;28;20000;-72
2023/11/23 01:21:55;;;;;;;;;;;16.00;91.80;;;;;;5012623;28;20032;-72
2023/11/23 01:24:20;;;;;;;;;;;16.00;91.70;;;;;;5012423;28;20279;-79
2023/11/23 01:26:46;;;;;;;;;;;15.90;91.50;;;;;;5012296;28;19924;-79
2023/11/23 01:29:12;;;;;;;;;;;15.90;91.60;;;;;;5012600;28;20012;-79
2023/11/23 01:31:38;;;;;;;;;;;16.00;91.80;;;;;;5012574;28;19921;-79
2023/11/23 01:34:04;;;;;;;;;;;16.00;91.50;;;;;;5012705;28;19964;-79
2023/11/23 01:36:30;;;;;;;;;;;16.00;91.70;;;;;;5012545;28;19937;-79
2023/11/23 01:38:56;;;;;;;;;;;16.00;91.70;;;;;;5012204;28;20281;-79
2023/11/23 01:41:22;;;;;;;;;;;15.90;91.70;;;;;;5012136;28;19910;-79
2023/11/23 01:43:47;;;;;;;;;;;16.00;91.80;;;;;;5012313;28;19913;-79
2023/11/23 01:46:13;;;;;;;;;;;16.00;91.80;;;;;;5012207;28;19980;-79
2023/11/23 01:48:39;;;;;;;;;;;15.90;91.70;;;;;;5012374;28;19910;-80
2023/11/23 01:51:05;;;;;;;;;;;15.90;91.90;;;;;;5012404;28;20360;-80
2023/11/23 01:53:31;;;;;;;;;;;15.90;91.50;;;;;;4995503;28;19985;-80
2023/11/23 01:55:58;;;;;;;;;;;15.90;91.70;;;;;;5012276;28;19968;-80
2023/11/23 01:58:23;;;;;;;;;;;15.90;92.00;;;;;;5012113;28;19909;-79
2023/11/23 02:00:50;;;;;;;;;;;15.90;91.80;;;;;;5012397;28;19917;-80
2023/11/23 02:03:18;;;;;;;;;;;15.90;91.80;;;;;;5012374;28;19929;-80
2023/11/23 02:05:44;;;;;;;;;;;15.80;91.90;;;;;;5012603;28;19921;-80
2023/11/23 02:08:10;;;;;;;;;;;15.90;92.00;;;;;;5012154;28;19914;-80
2023/11/23 02:10:36;;;;;;;;;;;15.90;92.00;;;;;;5012376;28;19917;-80
2023/11/23 02:13:03;;;;;;;;;;;16.00;92.20;;;;;;5012151;28;20438;-79
2023/11/23 02:15:30;;;;;;;;;;;16.00;92.20;;;;;;5012381;28;19917;-80
2023/11/23 02:18:00;;;;;;;;;;;15.90;92.10;;;;;;5012122;28;19948;-80
2023/11/23 02:20:26;;;;;;;;;;;16.00;92.10;;;;;;5012788;28;20326;-80
2023/11/23 02:22:52;;;;;;;;;;;16.10;92.20;;;;;;5012145;28;19909;-79
2023/11/23 02:25:18;;;;;;;;;;;15.90;92.10;;;;;;5011914;28;19924;-79
2023/11/23 02:27:44;;;;;;;;;;;15.70;92.10;;;;;;5012044;28;19909;-80
2023/11/23 02:30:11;;;;;;;;;;;16.10;92.00;;;;;;5012287;28;19917;-79
2023/11/23 02:32:37;;;;;;;;;;;16.10;91.30;;;;;;5012025;28;19951;-80
2023/11/23 02:35:03;;;;;;;;;;;16.00;92.30;;;;;;5012261;28;19909;-80
2023/11/23 02:37:29;;;;;;;;;;;16.00;91.80;;;;;;5014388;28;19909;-80
2023/11/23 02:39:55;;;;;;;;;;;15.90;92.10;;;;;;5015407;28;20336;-80
2023/11/23 02:42:21;;;;;;;;;;;16.00;92.30;;;;;;5015920;28;19910;-80
2023/11/23 02:44:47;;;;;;;;;;;16.00;92.20;;;;;;5015516;28;19925;-79
2023/11/23 02:47:13;;;;;;;;;;;16.10;92.30;;;;;;5015651;28;19909;-80
2023/11/23 02:49:39;;;;;;;;;;;15.70;92.10;;;;;;5015930;28;19909;-79
2023/11/23 02:52:06;;;;;;;;;;;15.90;92.00;;;;;;5015248;28;19910;-79
2023/11/23 02:54:31;;;;;;;;;;;16.00;92.20;;;;;;5015117;28;20356;-79
2023/11/23 02:56:57;;;;;;;;;;;15.90;92.10;;;;;;5015039;28;19925;-79
2023/11/23 02:59:23;;;;;;;;;;;16.00;92.20;;;;;;5015396;28;19917;-79
2023/11/23 03:01:49;;;;;;;;;;;16.00;91.90;;;;;;5015118;28;20277;-79
2023/11/23 03:04:15;;;;;;;;;;;16.00;92.20;;;;;;5014996;28;19925;-79
2023/11/23 03:06:41;;;;;;;;;;;16.00;92.30;;;;;;5015185;28;20319;-79
2023/11/23 03:09:07;;;;;;;;;;;15.90;91.90;;;;;;5014884;28;20378;-79
2023/11/23 03:11:32;;;;;;;;;;;16.00;92.00;;;;;;5014863;28;19955;-79
2023/11/23 03:13:58;;;;;;;;;;;15.90;92.00;;;;;;5014901;28;19909;-79
2023/11/23 03:16:24;;;;;;;;;;;16.00;92.10;;;;;;5014974;28;19917;-79
2023/11/23 03:18:50;;;;;;;;;;;15.80;91.90;;;;;;5015212;28;19909;-79
2023/11/23 03:21:16;;;;;;;;;;;16.00;92.20;;;;;;5014941;28;19917;-80
2023/11/23 03:23:42;;;;;;;;;;;16.00;92.10;;;;;;5014620;28;19909;-79
2023/11/23 03:26:09;;;;;;;;;;;16.00;92.00;;;;;;5014755;28;19925;-79
2023/11/23 03:28:35;;;;;;;;;;;15.60;92.00;;;;;;5014488;28;19944;-79
2023/11/23 03:31:01;;;;;;;;;;;16.00;91.90;;;;;;5015016;28;19916;-79
2023/11/23 03:33:27;;;;;;;;;;;14.70;91.70;;;;;;5014945;28;20328;-79
2023/11/23 03:35:53;;;;;;;;;;;16.10;92.10;;;;;;5014556;28;19909;-79
2023/11/23 03:38:19;;;;;;;;;;;16.00;92.10;;;;;;5014672;28;19910;-79
2023/11/23 03:40:45;;;;;;;;;;;16.00;92.00;;;;;;5014617;28;20348;-78
2023/11/23 03:43:11;;;;;;;;;;;16.00;91.90;;;;;;5014929;28;19949;-80
2023/11/23 03:45:37;;;;;;;;;;;16.10;92.00;;;;;;5014975;28;20062;-80
2023/11/23 03:48:03;;;;;;;;;;;16.00;92.00;;;;;;5014079;28;19992;-80
2023/11/23 03:50:29;;;;;;;;;;;16.00;91.60;;;;;;5014164;28;20447;-80
2023/11/23 03:52:55;;;;;;;;;;;15.90;91.80;;;;;;5014349;28;19996;-80
2023/11/23 03:55:22;;;;;;;;;;;16.00;92.00;;;;;;5014460;28;20004;-79
2023/11/23 03:57:48;;;;;;;;;;;15.90;91.90;;;;;;5013980;28;20427;-79
2023/11/23 04:00:15;;;;;;;;;;;16.00;91.90;;;;;;5014328;28;19909;-79
2023/11/23 04:02:46;;;;;;;;;;;16.00;91.70;;;;;;5013821;28;19916;-79
2023/11/23 04:05:18;;;;;;;;;;;16.00;89.40;;;;;;5014138;28;19918;-79
2023/11/23 04:07:44;;;;;;;;;;;16.00;89.50;;;;;;5013703;28;19910;-79
2023/11/23 04:10:09;;;;;;;;;;;16.00;92.00;;;;;;5013788;28;19910;-79
2023/11/23 04:12:35;;;;;;;;;;;15.90;91.70;;;;;;5014074;28;19909;-79
2023/11/23 04:15:01;;;;;;;;;;;15.90;91.90;;;;;;5014102;28;20364;-79
2023/11/23 04:17:27;;;;;;;;;;;15.90;91.70;;;;;;5013911;28;19920;-79
2023/11/23 04:19:54;;;;;;;;;;;15.90;92.10;;;;;;5013389;28;20323;-79
2023/11/23 04:22:21;;;;;;;;;;;15.90;91.90;;;;;;5013884;28;19920;-80
2023/11/23 04:24:47;;;;;;;;;;;15.90;91.90;;;;;;5013558;28;19929;-79
2023/11/23 04:27:14;;;;;;;;;;;16.00;92.00;;;;;;5013732;28;19910;-80
2023/11/23 04:29:40;;;;;;;;;;;15.90;91.80;;;;;;5013757;28;19909;-79
2023/11/23 04:32:06;;;;;;;;;;;15.60;91.70;;;;;;5013579;28;19909;-79
2023/11/23 04:34:32;;;;;;;;;;;16.00;92.00;;;;;;5013334;28;19909;-79
2023/11/23 04:36:58;;;;;;;;;;;16.00;92.00;;;;;;5013438;28;19910;-80
2023/11/23 04:39:25;;;;;;;;;;;16.00;92.00;;;;;;5013481;28;19909;-79
2023/11/23 04:41:51;;;;;;;;;;;15.20;91.80;;;;;;5013378;28;19917;-79
2023/11/23 04:44:16;;;;;;;;;;;16.00;91.80;;;;;;5013531;28;19909;-80
2023/11/23 04:46:42;;;;;;;;;;;16.00;91.90;;;;;;5013045;28;19917;-79
2023/11/23 04:49:07;;;;;;;;;;;16.00;92.00;;;;;;5013247;28;19924;-79
2023/11/23 04:51:33;;;;;;;;;;;16.10;92.00;;;;;;5013052;28;20392;-79
2023/11/23 04:53:58;;;;;;;;;;;16.00;92.00;;;;;;4995357;28;19909;-79
2023/11/23 04:56:24;;;;;;;;;;;16.00;91.90;;;;;;5012929;28;19909;-79
2023/11/23 04:58:49;;;;;;;;;;;16.10;92.00;;;;;;5012493;28;20376;-79
2023/11/23 05:01:15;;;;;;;;;;;16.00;92.00;;;;;;5012544;28;19931;-79
2023/11/23 05:03:41;;;;;;;;;;;16.00;91.90;;;;;;5012701;28;19921;-79
2023/11/23 05:06:09;;;;;;;;;;;16.20;92.00;;;;;;5012668;28;19917;-79
2023/11/23 05:08:36;;;;;;;;;;;16.00;91.30;;;;;;5013124;28;19909;-80
2023/11/23 05:11:03;;;;;;;;;;;16.00;92.00;;;;;;5013562;28;19992;-72
2023/11/23 05:13:29;;;;;;;;;;;16.00;92.00;;;;;;5012931;28;19914;-72
2023/11/23 05:15:55;;;;;;;;;;;16.00;92.30;;;;;;5012566;28;20304;-72
2023/11/23 05:18:21;;;;;;;;;;;16.00;92.20;;;;;;5012973;28;19914;-72
2023/11/23 05:20:46;;;;;;;;;;;16.10;92.20;;;;;;5012595;28;20002;-72
2023/11/23 05:23:11;;;;;;;;;;;16.00;92.20;;;;;;5012600;28;19909;-72
2023/11/23 05:25:37;;;;;;;;;;;16.10;92.10;;;;;;5012602;28;19955;-72
2023/11/23 05:28:02;;;;;;;;;;;16.20;92.20;;;;;;5012375;28;20004;-72
2023/11/23 05:30:28;;;;;;;;;;;16.70;92.30;;;;;;5012405;28;20269;-73
2023/11/23 05:32:54;;;;;;;;;;;16.00;92.10;;;;;;5012434;28;20004;-72
2023/11/23 05:35:19;;;;;;;;;;;16.00;92.20;;;;;;5012368;28;20279;-72
2023/11/23 05:37:45;;;;;;;;;;;16.20;92.30;;;;;;5012358;28;20007;-72
2023/11/23 05:40:15;;;;;;;;;;;15.80;92.20;;;;;;5012761;28;20000;-72
2023/11/23 05:42:41;;;;;;;;;;;16.10;90.80;;;;;;5012521;28;19910;-72
2023/11/23 05:45:08;;;;;;;;;;;16.10;92.40;;;;;;5012477;28;20231;-72
2023/11/23 05:47:36;;;;;;;;;;;16.20;91.70;;;;;;5012347;28;19956;-74
2023/11/23 05:50:02;;;;;;;;;;;16.20;92.10;;;;;;5012245;28;19910;-72
2023/11/23 05:52:28;;;;;;;;;;;16.00;92.20;;;;;;5012582;28;19914;-72
2023/11/23 05:54:57;;;;;;;;;;;15.80;92.30;;;;;;5012307;28;20328;-72
2023/11/23 05:57:23;;;;;;;;;;;16.10;91.10;;;;;;5012190;28;19932;-72
2023/11/23 05:59:49;;;;;;;;;;;16.20;92.50;;;;;;5012246;28;19918;-72
2023/11/23 06:02:15;;;;;;;;;;;16.00;92.20;;;;;;5012026;28;20284;-71
2023/11/23 06:04:45;;;;;;;;;;;16.10;92.40;;;;;;5011960;28;20048;-72
2023/11/23 06:07:10;;;;;;;;;;;16.00;92.40;;;;;;5012192;28;19913;-72
2023/11/23 06:09:39;;;;;;;;;;;16.10;92.30;;;;;;5012662;28;19920;-71
2023/11/23 06:12:05;;;;;;;;;;;16.10;90.00;;;;;;5015088;28;19909;-71
2023/11/23 06:14:36;;;;;;;;;;;16.10;92.10;;;;;;5016082;28;19939;-72
2023/11/23 06:17:03;;;;;;;;;;;16.00;90.10;;;;;;5016082;28;19944;-71
2023/11/23 06:19:29;;;;;;;;;;;16.10;92.50;;;;;;5016022;28;20015;-71
2023/11/23 06:21:54;;;;;;;;;;;16.10;92.40;;;;;;5015815;28;20368;-72
2023/11/23 06:24:20;;;;;;;;;;;16.00;92.30;;;;;;5015761;28;19949;-73
2023/11/23 06:26:45;;;;;;;;;;;16.00;92.40;;;;;;5015516;28;19940;-72
2023/11/23 06:29:11;;;;;;;;;;;16.10;92.40;;;;;;5015609;28;19909;-72
2023/11/23 06:31:36;;;;;;;;;;;16.10;92.40;;;;;;5015524;28;20283;-72
2023/11/23 06:34:02;;;;;;;;;;;16.10;92.50;;;;;;5015619;28;20566;-72
2023/11/23 06:36:29;;;;;;;;;;;16.10;92.10;;;;;;5016374;28;20323;-80
2023/11/23 06:38:55;;;;;;;;;;;16.20;92.30;;;;;;5015457;28;19937;-81
2023/11/23 06:41:21;;;;;;;;;;;16.10;92.50;;;;;;5015363;28;19910;-80
2023/11/23 06:43:51;;;;;;;;;;;16.10;92.60;;;;;;5015309;28;19914;-80
2023/11/23 06:46:17;;;;;;;;;;;16.00;90.30;;;;;;5015421;28;20019;-80
2023/11/23 06:48:44;;;;;;;;;;;16.00;92.70;;;;;;5015341;28;19968;-81
2023/11/23 06:51:10;;;;;;;;;;;16.10;92.40;;;;;;5015442;28;19910;-81
2023/11/23 06:53:46;;;;;;;;;;;15.90;92.80;;;;;;5015566;28;20351;-80
2023/11/23 06:56:15;;;;;;;;;;;16.30;92.70;;;;;;5015577;28;19917;-80
2023/11/23 06:58:48;;;;;;;;;;;16.10;90.30;;;;;;5015168;28;19977;-81
2023/11/23 07:01:30;;;;;;;;;;;16.10;92.40;;;;;;5013591;28;19910;-81
2023/11/23 07:03:56;;;;;;;;;;;16.10;92.60;;;;;;5015035;28;19944;-80
2023/11/23 07:06:24;;;;;;;;;;;16.30;92.60;;;;;;5015390;28;19925;-80
2023/11/23 07:08:50;;;;;;;;;;;16.10;92.60;;;;;;5015129;28;19909;-80
2023/11/23 07:11:19;;;;;;;;;;;16.10;92.60;;;;;;5015075;28;19996;-80
2023/11/23 07:13:49;;;;;;;;;;;16.10;91.50;;;;;;5015075;28;19944;-79
2023/11/23 07:16:15;;;;;;;;;;;16.10;90.30;;;;;;5015057;28;19999;-81
2023/11/23 07:18:41;;;;;;;;;;;16.20;92.60;;;;;;5015050;28;19910;-80
2023/11/23 07:21:08;;;;;;;;;;;16.10;92.60;;;;;;5014705;28;20287;-80
2023/11/23 07:23:36;;;;;;;;;;;16.10;92.60;;;;;;5014186;28;20004;-80
2023/11/23 07:26:02;;;;;;;;;;;16.20;92.50;;;;;;5014754;28;20000;-80
2023/11/23 07:28:28;;;;;;;;;;;16.10;92.50;;;;;;5014935;28;19956;-81
2023/11/23 07:30:57;;;;;;;;;;;16.10;92.20;;;;;;5014840;28;19910;-80
2023/11/23 07:33:25;;;;;;;;;;;16.10;90.50;;;;;;5015097;28;19910;-85
2023/11/23 07:35:51;;;;;;;;;;;16.10;92.30;;;;;;5014558;28;20359;-79
2023/11/23 07:38:17;;;;;;;;;;;16.10;92.50;;;;;;5014516;28;19910;-76
2023/11/23 07:40:43;;;;;;;;;;;16.10;92.50;;;;;;5014577;28;19910;-78
2023/11/23 07:43:09;;;;;;;;;;;16.10;92.20;;;;;;5014193;28;19932;-79
2023/11/23 07:45:37;;;;;;;;;;;16.20;92.60;;;;;;5014245;28;19972;-77
2023/11/23 07:48:08;;;;;;;;;;;16.20;92.50;;;;;;5014613;28;19940;-77
2023/11/23 07:50:37;;;;;;;;;;;16.10;92.20;;;;;;5014214;28;20267;-76
2023/11/23 07:53:04;;;;;;;;;;;16.20;90.20;;;;;;5014166;28;20372;-81
2023/11/23 07:55:31;;;;;;;;;;;16.10;92.40;;;;;;5014277;28;19909;-80
2023/11/23 07:57:56;;;;;;;;;;;16.10;92.40;;;;;;5014331;28;19970;-76
2023/11/23 08:00:23;;;;;;;;;;;16.10;92.40;;;;;;5014342;28;19910;-80
2023/11/23 08:02:49;;;;;;;;;;;16.10;92.20;;;;;;5014113;28;20371;-77
2023/11/23 08:05:15;;;;;;;;;;;16.20;92.40;;;;;;5014141;28;19918;-78
2023/11/23 08:07:42;;;;;;;;;;;16.10;92.40;;;;;;5013809;28;19913;-76
2023/11/23 08:10:09;;;;;;;;;;;16.10;92.30;;;;;;5014105;28;20344;-78
2023/11/23 08:12:35;;;;;;;;;;;16.30;91.90;;;;;;5014148;28;19916;-79
2023/11/23 08:15:01;;;;;;;;;;;16.10;92.30;;;;;;5013979;28;20003;-73
2023/11/23 08:17:27;;;;;;;;;;;16.20;92.40;;;;;;5013941;28;20284;-72
2023/11/23 08:19:53;;;;;;;;;;;16.30;92.40;;;;;;5013495;28;19916;-71
2023/11/23 08:22:21;;;;;;;;;;;16.20;92.40;;;;;;5013457;28;19909;-72
2023/11/23 08:24:47;;;;;;;;;;;16.20;92.40;;;;;;5013580;28;19937;-73
2023/11/23 08:27:13;;;;;;;;;;;16.20;92.50;;;;;;5013663;28;19992;-72
2023/11/23 08:29:39;;;;;;;;;;;16.30;92.40;;;;;;5013640;28;20368;-72
2023/11/23 08:32:05;;;;;;;;;;;16.20;92.40;;;;;;5014004;28;20391;-71
2023/11/23 08:34:33;;;;;;;;;;;16.20;91.50;;;;;;5012654;28;19914;-72
2023/11/23 08:36:58;;;;;;;;;;;16.10;92.30;;;;;;5013106;28;20249;-72
2023/11/23 08:39:24;;;;;;;;;;;16.10;92.40;;;;;;5013493;28;19917;-70
2023/11/23 08:41:50;;;;;;;;;;;16.10;92.40;;;;;;5013179;28;19921;-71
2023/11/23 08:44:16;;;;;;;;;;;16.10;92.20;;;;;;5013559;28;19909;-71
2023/11/23 08:46:43;;;;;;;;;;;16.00;92.20;;;;;;5013245;28;19921;-71
2023/11/23 08:49:10;;;;;;;;;;;16.10;92.30;;;;;;5013349;28;20331;-71
2023/11/23 08:51:36;;;;;;;;;;;16.30;92.30;;;;;;5012979;28;19913;-71
2023/11/23 08:54:03;;;;;;;;;;;16.10;92.40;;;;;;5014345;28;20321;-71
2023/11/23 08:56:30;;;;;;;;;;;16.20;92.10;;;;;;5013226;28;19996;-71
2023/11/23 08:58:56;;;;;;;;;;;16.10;92.20;;;;;;5013577;28;20004;-71
2023/11/23 09:01:23;;;;;;;;;;;16.00;92.10;;;;;;5012720;28;20351;-71
2023/11/23 09:03:49;;;;;;;;;;;15.80;92.00;;;;;;5012595;28;20387;-73
2023/11/23 09:06:15;;;;;;;;;;;16.10;92.20;;;;;;5012698;28;19922;-72
2023/11/23 09:08:41;;;;;;;;;;;16.40;92.40;;;;;;5012785;28;19916;-71
2023/11/23 09:11:07;;;;;;;;;;;16.10;92.20;;;;;;5012958;28;19984;-71
2023/11/23 09:13:33;;;;;;;;;;;16.20;92.30;;;;;;5013036;28;20257;-71
2023/11/23 09:15:59;;;;;;;;;;;16.10;92.10;;;;;;5012573;28;19916;-71
2023/11/23 09:18:25;;;;;;;;;;;16.10;92.20;;;;;;5012930;28;19957;-71
2023/11/23 09:20:51;;;;;;;;;;;16.00;92.10;;;;;;5012877;28;20308;-71
2023/11/23 09:23:17;;;;;;;;;;;16.20;92.30;;;;;;5012575;28;19914;-71
2023/11/23 09:25:43;;;;;;;;;;;16.20;92.40;;;;;;5012766;28;20053;-71
2023/11/23 09:28:09;;;;;;;;;;;16.20;92.40;;;;;;5012868;28;20387;-71
2023/11/23 09:30:35;;;;;;;;;;;16.20;92.10;;;;;;5012780;28;19910;-71
2023/11/23 09:33:01;;;;;;;;;;;16.00;92.40;;;;;;5012420;28;19916;-71
2023/11/23 09:35:27;;;;;;;;;;;16.20;92.20;;;;;;5012620;28;19960;-71
2023/11/23 09:37:53;;;;;;;;;;;16.30;92.40;;;;;;5012292;28;19910;-71
2023/11/23 09:40:19;;;;;;;;;;;16.30;92.20;;;;;;5012381;28;20344;-74
2023/11/23 09:42:46;;;;;;;;;;;16.30;92.30;;;;;;5012446;28;19909;-74
2023/11/23 09:45:14;;;;;;;;;;;16.30;92.30;;;;;;5012524;28;19972;-74
2023/11/23 09:47:41;;;;;;;;;;;16.30;92.50;;;;;;5016695;28;19993;-74
2023/11/23 09:50:09;;;;;;;;;;;16.40;92.30;;;;;;5016251;28;20387;-74
2023/11/23 09:52:39;;;;;;;;;;;16.40;92.20;;;;;;5016219;28;19910;-74
2023/11/23 09:55:07;;;;;;;;;;;16.60;92.50;;;;;;5016522;28;19909;-74
2023/11/23 09:57:35;;;;;;;;;;;16.40;92.30;;;;;;5016974;28;19917;-71
2023/11/23 10:00:08;;;;;;;;;;;16.40;92.40;;;;;;5016210;28;20423;-71
2023/11/23 10:02:36;;;;;;;;;;;16.40;92.20;;;;;;5016236;28;19910;-71
2023/11/23 10:05:02;;;;;;;;;;;16.30;92.50;;;;;;5016544;28;20047;-70
2023/11/23 10:07:28;;;;;;;;;;;16.40;92.50;;;;;;5016206;28;20012;-71
2023/11/23 10:09:53;;;;;;;;;;;16.50;92.60;;;;;;5016533;28;20289;-71
2023/11/23 10:12:21;;;;;;;;;;;16.50;92.60;;;;;;5016421;28;19913;-71
2023/11/23 10:14:47;;;;;;;;;;;16.50;92.50;;;;;;5016111;28;19913;-71
2023/11/23 10:17:13;;;;;;;;;;;16.50;92.70;;;;;;5016663;28;20001;-71
2023/11/23 10:19:39;;;;;;;;;;;16.60;92.60;;;;;;5015985;28;19916;-71
2023/11/23 10:22:05;;;;;;;;;;;16.50;92.60;;;;;;5016177;28;20032;-71
2023/11/23 10:24:31;;;;;;;;;;;16.50;92.50;;;;;;5016631;28;19909;-71
2023/11/23 10:26:57;;;;;;;;;;;16.60;92.70;;;;;;5016103;28;19979;-70
2023/11/23 10:29:28;;;;;;;;;;;16.60;92.80;;;;;;5016044;28;20253;-71
2023/11/23 10:31:59;;;;;;;;;;;16.70;92.60;;;;;;5016054;28;19909;-71
2023/11/23 10:34:29;;;;;;;;;;;16.70;90.40;;;;;;5015992;28;19916;-71
2023/11/23 10:36:56;;;;;;;;;;;16.60;92.30;;;;;;5015726;28;19910;-71
2023/11/23 10:39:22;;;;;;;;;;;16.60;92.70;;;;;;5015895;28;19928;-71
2023/11/23 10:41:49;;;;;;;;;;;16.60;92.70;;;;;;5015895;28;20322;-71
2023/11/23 10:44:15;;;;;;;;;;;16.70;92.80;;;;;;5015724;28;19916;-71
2023/11/23 10:46:42;;;;;;;;;;;16.60;93.00;;;;;;5015309;28;19918;-71
2023/11/23 10:49:08;;;;;;;;;;;16.60;93.00;;;;;;5015827;28;20366;-71
2023/11/23 10:51:34;;;;;;;;;;;16.70;92.90;;;;;;5015303;28;20015;-71
2023/11/23 10:54:01;;;;;;;;;;;16.70;92.90;;;;;;5015826;28;19916;-71
2023/11/23 10:56:28;;;;;;;;;;;16.60;93.00;;;;;;5015343;28;20385;-70
2023/11/23 10:58:59;;;;;;;;;;;16.60;93.00;;;;;;5014306;28;19914;-71
2023/11/23 11:01:26;;;;;;;;;;;16.50;92.90;;;;;;5015332;28;19917;-71
2023/11/23 11:03:52;;;;;;;;;;;16.60;93.10;;;;;;5014900;28;19976;-71
2023/11/23 11:06:18;;;;;;;;;;;16.60;93.00;;;;;;5015143;28;19928;-71
2023/11/23 11:08:45;;;;;;;;;;;16.70;93.20;;;;;;5014959;28;19956;-71
2023/11/23 11:11:12;;;;;;;;;;;16.80;93.10;;;;;;5015186;28;19941;-71
2023/11/23 11:13:45;;;;;;;;;;;16.70;93.10;;;;;;5015209;28;19910;-71
2023/11/23 11:16:11;;;;;;;;;;;16.70;90.80;;;;;;5015067;28;19956;-71
2023/11/23 11:18:38;;;;;;;;;;;16.60;93.10;;;;;;5014720;28;19913;-71
2023/11/23 11:21:09;;;;;;;;;;;16.70;93.10;;;;;;5014897;28;19909;-71
2023/11/23 11:23:38;;;;;;;;;;;16.40;90.70;;;;;;5015542;28;19916;-71
2023/11/23 11:26:09;;;;;;;;;;;16.60;93.00;;;;;;5014624;28;20012;-71
2023/11/23 11:28:36;;;;;;;;;;;16.70;90.80;;;;;;5014874;28;19920;-71
2023/11/23 11:31:04;;;;;;;;;;;16.70;92.90;;;;;;5014527;28;20348;-71
2023/11/23 11:33:31;;;;;;;;;;;16.60;92.90;;;;;;5014861;28;19909;-71
2023/11/23 11:35:57;;;;;;;;;;;16.70;93.10;;;;;;5014773;28;19916;-70
2023/11/23 11:38:24;;;;;;;;;;;16.60;93.10;;;;;;5014619;28;19963;-70
2023/11/23 11:40:50;;;;;;;;;;;16.70;92.90;;;;;;5014612;28;19909;-72
2023/11/23 11:43:16;;;;;;;;;;;16.80;93.20;;;;;;5014395;28;20387;-71
2023/11/23 11:45:42;;;;;;;;;;;16.70;93.10;;;;;;5014142;28;20027;-72
2023/11/23 11:48:07;;;;;;;;;;;16.70;93.00;;;;;;5014347;28;19921;-72
2023/11/23 11:50:35;;;;;;;;;;;16.60;93.20;;;;;;5014580;28;19916;-72
2023/11/23 11:53:01;;;;;;;;;;;16.70;93.10;;;;;;5014378;28;19999;-72
2023/11/23 11:55:27;;;;;;;;;;;16.60;93.00;;;;;;5014005;28;19910;-72
2023/11/23 11:57:54;;;;;;;;;;;16.80;93.10;;;;;;5014295;28;19917;-71
2023/11/23 12:00:21;;;;;;;;;;;16.70;93.10;;;;;;5014356;28;19909;-72
2023/11/23 12:02:47;;;;;;;;;;;16.70;92.90;;;;;;5013721;28;19914;-71
2023/11/23 12:05:13;;;;;;;;;;;16.70;93.10;;;;;;5013903;28;19920;-72
2023/11/23 12:07:39;;;;;;;;;;;16.20;93.00;;;;;;5013852;28;19996;-72
2023/11/23 12:10:07;;;;;;;;;;;16.60;93.00;;;;;;5013587;28;19909;-72
2023/11/23 12:12:44;;;;;;;;;;;16.70;92.20;;;;;;5014066;28;19910;-71
2023/11/23 12:15:12;;;;;;;;;;;16.70;90.80;;;;;;5013805;28;19916;-72
2023/11/23 12:17:46;;;;;;;;;;;16.70;92.70;;;;;;5013732;28;20407;-72
2023/11/23 12:20:12;;;;;;;;;;;16.70;93.20;;;;;;5014296;28;19920;-72
2023/11/23 12:22:37;;;;;;;;;;;16.70;92.90;;;;;;4996061;28;20292;-72
2023/11/23 12:25:05;;;;;;;;;;;16.80;93.40;;;;;;5013465;28;19925;-72
2023/11/23 12:27:30;;;;;;;;;;;16.70;93.30;;;;;;5013467;28;20384;-72
2023/11/23 12:29:56;;;;;;;;;;;16.70;93.20;;;;;;5013616;28;19909;-72
2023/11/23 12:32:22;;;;;;;;;;;16.80;93.30;;;;;;5013927;28;19909;-72
2023/11/23 12:34:47;;;;;;;;;;;16.80;93.30;;;;;;5013746;28;19920;-72
2023/11/23 12:37:13;;;;;;;;;;;16.70;93.50;;;;;;5013688;28;19909;-72
2023/11/23 12:39:39;;;;;;;;;;;16.80;93.40;;;;;;5013366;28;19909;-72
2023/11/23 12:42:04;;;;;;;;;;;16.80;93.30;;;;;;5013289;28;19956;-72
2023/11/23 12:44:30;;;;;;;;;;;16.80;93.40;;;;;;5013283;28;20377;-72
2023/11/23 12:46:55;;;;;;;;;;;16.90;93.40;;;;;;5013545;28;19927;-72
2023/11/23 12:49:21;;;;;;;;;;;16.80;93.50;;;;;;5013149;28;20396;-71
2023/11/23 12:51:47;;;;;;;;;;;16.80;93.30;;;;;;5013198;28;20012;-71
2023/11/23 12:54:14;;;;;;;;;;;16.90;93.40;;;;;;5013303;28;19917;-72
2023/11/23 12:56:39;;;;;;;;;;;16.80;93.30;;;;;;5013295;28;19913;-72
2023/11/23 12:59:05;;;;;;;;;;;16.90;93.40;;;;;;5013013;28;19910;-71
2023/11/23 13:01:34;;;;;;;;;;;16.80;93.10;;;;;;5013048;28;19916;-72
2023/11/23 13:04:00;;;;;;;;;;;17.00;93.30;;;;;;5012756;28;20342;-72
2023/11/23 13:06:27;;;;;;;;;;;17.00;93.40;;;;;;5012837;28;19944;-72
2023/11/23 13:08:55;;;;;;;;;;;17.00;93.40;;;;;;5012345;28;20152;-72
2023/11/23 13:11:21;;;;;;;;;;;17.00;93.40;;;;;;5012795;28;20379;-71
2023/11/23 13:13:48;;;;;;;;;;;17.10;93.30;;;;;;5012773;28;19916;-71
2023/11/23 13:16:15;;;;;;;;;;;17.00;93.40;;;;;;5013195;28;19918;-72
2023/11/23 13:18:41;;;;;;;;;;;17.00;93.40;;;;;;5013036;28;19957;-72
2023/11/23 13:21:07;;;;;;;;;;;17.00;93.20;;;;;;5012371;28;19950;-71
2023/11/23 13:23:33;;;;;;;;;;;17.20;93.20;;;;;;5012746;28;20367;-72
2023/11/23 13:26:00;;;;;;;;;;;17.00;93.10;;;;;;5012634;28;19924;-72
2023/11/23 13:28:26;;;;;;;;;;;17.10;93.30;;;;;;5012744;28;19909;-71
2023/11/23 13:30:52;;;;;;;;;;;17.00;93.30;;;;;;5012594;28;20000;-72
2023/11/23 13:33:22;;;;;;;;;;;17.10;93.30;;;;;;5012565;28;20004;-71
2023/11/23 13:35:48;;;;;;;;;;;17.40;93.30;;;;;;5012895;28;19968;-71
2023/11/23 13:38:14;;;;;;;;;;;17.10;93.40;;;;;;5012559;28;19909;-72
2023/11/23 13:40:40;;;;;;;;;;;17.20;93.20;;;;;;5012617;28;19910;-72
2023/11/23 13:43:06;;;;;;;;;;;17.10;93.20;;;;;;5012378;28;19917;-72
2023/11/23 13:45:31;;;;;;;;;;;17.10;93.30;;;;;;5012432;28;19917;-72
2023/11/23 13:47:59;;;;;;;;;;;17.10;93.20;;;;;;5012546;28;20003;-72
2023/11/23 13:50:27;;;;;;;;;;;17.10;93.20;;;;;;5012403;28;20033;-72
2023/11/23 13:52:53;;;;;;;;;;;17.20;93.10;;;;;;5012380;28;19920;-72
2023/11/23 13:55:19;;;;;;;;;;;17.10;93.30;;;;;;5012306;28;19909;-71
2023/11/23 13:57:44;;;;;;;;;;;17.20;93.20;;;;;;5012418;28;19909;-72
2023/11/23 14:00:19;;;;;;;;;;;17.30;93.30;;;;;;5012245;28;19910;-72
2023/11/23 14:02:47;;;;;;;;;;;17.20;93.00;;;;;;5015505;28;20311;-72
2023/11/23 14:05:13;;;;;;;;;;;17.50;93.40;;;;;;5012442;28;20347;-72
2023/11/23 14:07:39;;;;;;;;;;;17.10;93.00;;;;;;5012270;28;20257;-72
2023/11/23 14:10:06;;;;;;;;;;;17.30;93.10;;;;;;5012213;28;20000;-72
2023/11/23 14:12:32;;;;;;;;;;;17.20;93.00;;;;;;5012290;28;19917;-72